createdAt,value
2018-06-05T01:00:16.195Z,91.90
2018-06-05T01:02:44.775Z,92.10
2018-06-05T01:07:41.576Z,92.40
2018-06-05T01:10:10.101Z,92.30
2018-06-05T01:12:38.508Z,92.60
2018-06-05T01:15:07.067Z,92.50
2018-06-05T01:17:35.718Z,92.90
2018-06-05T01:20:04.329Z,93.20
2018-06-05T01:22:32.699Z,93.10
2018-06-05T01:25:01.071Z,93.30
2018-06-05T01:27:29.532Z,93.50
2018-06-05T01:29:58.090Z,93.70
2018-06-05T01:32:26.480Z,94.50
2018-06-05T01:34:54.857Z,94.80
2018-06-05T01:37:23.823Z,95.10
2018-06-05T01:39:52.190Z,95.40
2018-06-05T01:42:20.675Z,96.00
2018-06-05T01:44:49.100Z,96.20
2018-06-05T01:47:17.460Z,96.30
2018-06-05T01:49:46.070Z,96.40
2018-06-05T01:52:14.726Z,96.60
2018-06-05T01:54:43.446Z,97.40
2018-06-05T01:57:11.852Z,97.80
2018-06-05T01:59:40.607Z,97.70
2018-06-05T02:02:09.001Z,98.20
2018-06-05T02:04:37.659Z,98.60
2018-06-05T02:07:07.001Z,99.10
2018-06-05T02:09:35.373Z,98.50
2018-06-05T02:12:03.769Z,98.90
2018-06-05T02:14:32.552Z,99.00
2018-06-05T02:17:01.237Z,99.00
2018-06-05T02:19:29.691Z,99.10
2018-06-05T02:21:58.260Z,99.10
2018-06-05T02:24:27.320Z,99.90
2018-06-05T02:26:55.943Z,99.90
2018-06-05T02:29:24.661Z,99.90
2018-06-05T02:31:53.357Z,99.90
2018-06-05T02:34:21.959Z,99.90
2018-06-05T02:36:50.728Z,99.90
2018-06-05T02:39:19.243Z,99.90
2018-06-05T02:41:47.973Z,99.90
2018-06-05T02:44:17.092Z,99.90
2018-06-05T02:46:45.451Z,99.90
2018-06-05T02:51:42.004Z,99.90
2018-06-05T02:54:10.668Z,99.90
2018-06-05T02:56:39.041Z,99.90
2018-06-05T02:59:11.037Z,99.90
2018-06-05T03:01:39.410Z,99.90
2018-06-05T03:04:07.780Z,99.90
2018-06-05T03:09:06.847Z,99.90
2018-06-05T03:11:36.013Z,99.90
2018-06-05T03:14:04.670Z,99.90
2018-06-05T03:16:33.114Z,99.90
2018-06-05T03:19:01.544Z,99.90
2018-06-05T03:23:58.438Z,99.90
2018-06-05T03:26:27.260Z,99.90
2018-06-05T03:28:55.635Z,99.90
2018-06-05T03:31:24.470Z,99.90
2018-06-05T03:33:53.007Z,99.90
2018-06-05T03:36:21.868Z,99.90
2018-06-05T03:38:50.246Z,99.90
2018-06-05T03:41:18.766Z,99.90
2018-06-05T03:43:48.127Z,99.90
2018-06-05T03:46:16.728Z,99.90
2018-06-05T03:48:45.461Z,99.90
2018-06-05T03:51:14.594Z,99.90
2018-06-05T03:53:42.973Z,99.90
2018-06-05T03:56:11.324Z,99.90
2018-06-05T03:58:39.932Z,99.90
2018-06-05T04:01:08.347Z,99.90
2018-06-05T04:03:36.706Z,99.90
2018-06-05T04:06:05.097Z,99.90
2018-06-05T04:08:33.705Z,99.90
2018-06-05T04:11:08.249Z,99.90
2018-06-05T04:13:37.885Z,99.90
2018-06-05T04:16:06.418Z,99.90
2018-06-05T04:18:35.278Z,99.90
2018-06-05T04:21:03.846Z,99.90
2018-06-05T04:23:32.808Z,99.90
2018-06-05T04:26:01.710Z,99.90
2018-06-05T04:28:30.088Z,99.90
2018-06-05T04:30:58.824Z,99.90
2018-06-05T04:33:27.304Z,99.90
2018-06-05T04:35:56.051Z,99.90
2018-06-05T04:38:24.543Z,99.90
2018-06-05T04:40:52.910Z,99.90
2018-06-05T04:43:21.283Z,99.90
2018-06-05T04:45:50.150Z,99.90
2018-06-05T04:48:18.529Z,99.90
2018-06-05T04:50:46.908Z,99.90
2018-06-05T04:53:15.333Z,99.90
2018-06-05T04:55:44.088Z,99.90
2018-06-05T04:58:12.711Z,99.90
2018-06-05T05:00:41.101Z,99.90
2018-06-05T05:03:09.771Z,99.90
2018-06-05T05:05:38.451Z,99.90
2018-06-05T05:08:07.068Z,99.90
2018-06-05T05:10:35.513Z,99.90
2018-06-05T05:13:04.224Z,99.90
2018-06-05T05:15:33.140Z,99.90
2018-06-05T05:18:01.504Z,99.90
2018-06-05T05:20:30.183Z,99.90
2018-06-05T05:22:58.545Z,99.90
2018-06-05T05:25:27.456Z,99.90
2018-06-05T05:27:56.153Z,99.90
2018-06-05T05:30:24.747Z,99.80
2018-06-05T05:32:53.120Z,99.40
2018-06-05T05:35:21.472Z,99.50
2018-06-05T05:37:50.107Z,99.50
2018-06-05T05:40:18.989Z,99.00
2018-06-05T05:42:47.536Z,98.60
2018-06-05T05:45:15.929Z,98.40
2018-06-05T05:47:44.372Z,97.80
2018-06-05T05:50:13.731Z,97.10
2018-06-05T05:52:42.182Z,94.60
2018-06-05T05:55:10.608Z,92.70
2018-06-05T05:57:39.569Z,87.70
2018-06-05T06:00:07.995Z,77.70
2018-06-05T06:02:36.480Z,71.90
2018-06-05T06:05:05.073Z,66.30
2018-06-05T06:07:33.671Z,62.80
2018-06-05T06:10:02.751Z,57.20
2018-06-05T06:12:31.178Z,54.30
2018-06-05T06:14:59.600Z,52.50
2018-06-05T06:17:27.986Z,51.50
2018-06-05T06:19:56.455Z,51.20
2018-06-05T06:22:25.155Z,51.20
2018-06-05T06:24:54.124Z,51.10
2018-06-05T06:27:23.099Z,48.40
2018-06-05T06:29:52.299Z,46.00
2018-06-05T06:32:20.702Z,45.30
2018-06-05T06:34:49.333Z,46.00
2018-06-05T06:37:17.713Z,45.20
2018-06-05T06:39:46.499Z,46.00
2018-06-05T06:42:15.054Z,45.80
2018-06-05T06:44:44.339Z,43.70
2018-06-05T06:47:12.868Z,43.70
2018-06-05T06:49:41.703Z,42.90
2018-06-05T06:52:10.151Z,43.10
2018-06-05T06:54:38.639Z,43.70
2018-06-05T06:57:07.191Z,42.70
2018-06-05T06:59:35.590Z,41.30
2018-06-05T07:02:04.705Z,42.70
2018-06-05T07:04:33.075Z,40.70
2018-06-05T07:09:29.583Z,41.60
2018-06-05T07:11:58.507Z,40.40
2018-06-05T07:16:55.244Z,41.10
2018-06-05T07:19:24.097Z,42.00
2018-06-05T07:21:52.477Z,41.70
2018-06-05T07:24:21.081Z,38.80
2018-06-05T07:26:49.487Z,38.10
2018-06-05T07:29:18.155Z,38.40
2018-06-05T07:31:46.807Z,40.90
2018-06-05T07:34:15.777Z,40.60
2018-06-05T07:36:44.163Z,40.70
2018-06-05T07:39:13.487Z,44.50
2018-06-05T07:41:42.106Z,43.40
2018-06-05T07:44:10.507Z,40.90
2018-06-05T07:46:39.141Z,37.40
2018-06-05T07:49:08.306Z,36.60
2018-06-05T07:51:36.716Z,37.90
2018-06-05T07:54:05.408Z,36.90
2018-06-05T07:56:34.102Z,36.90
2018-06-05T07:59:03.543Z,37.80
2018-06-05T08:01:32.466Z,38.30
2018-06-05T08:04:01.342Z,38.30
2018-06-05T08:06:29.807Z,40.00
2018-06-05T08:08:58.421Z,40.60
2018-06-05T08:11:26.942Z,40.90
2018-06-05T08:13:55.833Z,42.70
2018-06-05T08:16:24.548Z,37.70
2018-06-05T08:18:53.175Z,40.30
2018-06-05T08:21:21.933Z,39.90
2018-06-05T08:23:50.489Z,35.80
2018-06-05T08:26:20.883Z,33.30
2018-06-05T08:28:49.691Z,33.20
2018-06-05T08:31:18.234Z,37.20
2018-06-05T08:33:46.815Z,36.30
2018-06-05T08:36:15.245Z,34.40
2018-06-05T08:38:44.892Z,33.90
2018-06-05T08:41:13.772Z,32.20
2018-06-05T08:43:42.230Z,34.30
2018-06-05T08:46:11.219Z,37.30
2018-06-05T08:48:39.788Z,37.20
2018-06-05T08:51:11.005Z,37.60
2018-06-05T08:53:39.580Z,39.30
2018-06-05T08:56:07.952Z,38.60
2018-06-05T08:58:36.488Z,41.10
2018-06-05T09:01:05.014Z,39.10
2018-06-05T09:03:33.468Z,36.60
2018-06-05T09:06:02.193Z,38.70
2018-06-05T09:08:30.600Z,38.80
2018-06-05T09:10:59.942Z,37.00
2018-06-05T09:13:31.614Z,35.70
2018-06-05T09:16:00.285Z,33.50
2018-06-05T09:18:28.677Z,33.80
2018-06-05T09:20:57.792Z,34.30
2018-06-05T09:23:26.155Z,33.70
2018-06-05T09:25:54.871Z,34.40
2018-06-05T09:28:23.300Z,31.70
2018-06-05T09:30:52.072Z,30.70
2018-06-05T09:33:20.626Z,31.70
2018-06-05T09:35:48.996Z,30.20
2018-06-05T09:40:47.051Z,31.30
2018-06-05T09:43:15.461Z,34.20
2018-06-05T09:45:44.170Z,31.60
2018-06-05T09:48:12.960Z,33.00
2018-06-05T09:50:45.173Z,31.40
2018-06-05T09:53:14.438Z,31.10
2018-06-05T09:55:43.029Z,31.70
2018-06-05T09:58:17.311Z,29.40
2018-06-05T10:00:51.465Z,32.40
2018-06-05T10:03:23.980Z,29.80
2018-06-05T10:05:52.562Z,32.20
2018-06-05T10:08:21.071Z,35.60
2018-06-05T10:10:49.466Z,32.80
2018-06-05T10:13:18.086Z,34.80
2018-06-05T10:15:46.505Z,31.50
2018-06-05T10:18:14.886Z,35.50
2018-06-05T10:20:43.578Z,36.80
2018-06-05T10:23:12.155Z,37.20
2018-06-05T10:25:40.570Z,30.80
2018-06-05T10:28:09.545Z,30.60
2018-06-05T10:30:38.216Z,32.40
2018-06-05T10:33:06.813Z,30.50
2018-06-05T10:35:35.543Z,33.50
2018-06-05T10:38:05.383Z,33.40
2018-06-05T10:40:34.513Z,34.20
2018-06-05T10:43:03.385Z,35.00
2018-06-05T10:45:31.900Z,34.80
2018-06-05T10:48:00.277Z,32.40
2018-06-05T10:50:29.295Z,32.10
2018-06-05T10:52:57.805Z,32.10
2018-06-05T10:55:26.511Z,30.00
2018-06-05T10:57:54.976Z,27.50
2018-06-05T11:00:23.666Z,27.30
2018-06-05T11:02:52.397Z,29.80
2018-06-05T11:05:20.940Z,28.10
2018-06-05T11:07:49.455Z,31.40
2018-06-05T11:10:18.221Z,32.30
2018-06-05T11:12:46.736Z,29.20
2018-06-05T11:15:15.249Z,32.20
2018-06-05T11:17:44.090Z,31.00
2018-06-05T11:20:12.645Z,30.10
2018-06-05T11:22:41.561Z,30.70
2018-06-05T11:25:10.161Z,30.30
2018-06-05T11:27:39.517Z,32.00
2018-06-05T11:30:08.318Z,30.90
2018-06-05T11:32:36.792Z,32.30
2018-06-05T11:35:14.502Z,31.30
2018-06-05T11:37:44.496Z,35.00
2018-06-05T11:40:13.024Z,33.30
2018-06-05T11:42:41.784Z,35.30
2018-06-05T11:45:10.445Z,36.80
2018-06-05T11:47:38.948Z,36.50
2018-06-05T11:50:07.428Z,41.00
2018-06-05T11:52:35.853Z,41.70
2018-06-05T11:55:04.664Z,41.40
2018-06-05T11:57:33.324Z,42.40
2018-06-05T12:00:01.938Z,43.70
2018-06-05T12:02:30.827Z,39.80
2018-06-05T12:04:59.783Z,37.30
2018-06-05T12:07:28.224Z,42.10
2018-06-05T12:10:03.988Z,39.70
2018-06-05T12:12:32.393Z,37.90
2018-06-05T12:15:01.172Z,36.80
2018-06-05T12:17:30.382Z,37.20
2018-06-05T12:19:59.007Z,38.60
2018-06-05T12:22:27.443Z,36.60
2018-06-05T12:24:56.120Z,34.50
2018-06-05T12:27:24.771Z,35.70
2018-06-05T12:29:53.193Z,35.20
2018-06-05T12:32:22.227Z,34.60
2018-06-05T12:34:50.952Z,36.40
2018-06-05T12:37:20.248Z,35.00
2018-06-05T12:39:48.804Z,33.10
2018-06-05T12:42:17.310Z,35.50
2018-06-05T12:47:14.357Z,35.90
2018-06-05T12:49:42.750Z,39.30
2018-06-05T12:52:11.113Z,37.20
2018-06-05T12:54:39.536Z,37.40
2018-06-05T12:57:08.089Z,37.50
2018-06-05T12:59:36.724Z,40.40
2018-06-05T13:02:05.313Z,33.30
2018-06-05T13:04:34.022Z,37.30
2018-06-05T13:07:02.417Z,35.30
2018-06-05T13:09:31.139Z,34.00
2018-06-05T13:11:59.634Z,31.40
2018-06-05T13:14:28.180Z,33.40
2018-06-05T13:16:56.560Z,38.70
2018-06-05T13:19:25.543Z,35.00
2018-06-05T13:21:54.460Z,36.70
2018-06-05T13:24:23.171Z,35.70
2018-06-05T13:26:51.584Z,36.00
2018-06-05T13:29:20.196Z,36.60
2018-06-05T13:31:49.110Z,36.30
2018-06-05T13:34:17.489Z,35.30
2018-06-05T13:36:45.871Z,34.80
2018-06-05T13:39:14.601Z,34.30
2018-06-05T13:41:43.808Z,36.00
2018-06-05T13:44:12.292Z,33.10
2018-06-05T13:46:41.589Z,36.10
2018-06-05T13:49:10.968Z,32.40
2018-06-05T13:51:39.528Z,31.30
2018-06-05T13:54:08.387Z,34.60
2018-06-05T13:56:36.901Z,33.20
2018-06-05T13:59:05.636Z,33.50
2018-06-05T14:01:34.282Z,33.30
2018-06-05T14:04:02.795Z,35.70
2018-06-05T14:06:31.465Z,36.80
2018-06-05T14:09:00.168Z,36.80
2018-06-05T14:11:28.617Z,34.00
2018-06-05T14:13:57.192Z,33.50
2018-06-05T14:16:25.641Z,33.60
2018-06-05T14:18:54.220Z,33.80
2018-06-05T14:21:22.861Z,32.30
2018-06-05T14:23:51.264Z,34.90
2018-06-05T14:26:19.604Z,35.30
2018-06-05T14:28:48.613Z,33.80
2018-06-05T14:31:17.623Z,35.60
2018-06-05T14:33:46.214Z,34.00
2018-06-05T14:36:15.108Z,33.70
2018-06-05T14:41:13.146Z,33.50
2018-06-05T14:43:42.029Z,36.20
2018-06-05T14:46:10.792Z,33.60
2018-06-05T14:48:39.793Z,36.00
2018-06-05T14:51:08.698Z,34.30
2018-06-05T14:53:37.505Z,35.60
2018-06-05T14:56:06.048Z,35.30
2018-06-05T14:58:35.075Z,35.80
2018-06-05T15:01:03.943Z,34.70
2018-06-05T15:03:32.856Z,33.30
2018-06-05T15:06:01.750Z,35.90
2018-06-05T15:08:30.298Z,32.80
2018-06-05T15:10:58.791Z,34.70
2018-06-05T15:13:27.785Z,33.30
2018-06-05T15:15:56.877Z,33.80
2018-06-05T15:18:25.875Z,33.40
2018-06-05T15:20:54.525Z,33.80
2018-06-05T15:23:24.049Z,33.30
2018-06-05T15:25:52.912Z,34.80
2018-06-05T15:28:21.744Z,33.80
2018-06-05T15:30:50.846Z,36.10
2018-06-05T15:33:19.571Z,33.80
2018-06-05T15:35:48.495Z,33.30
2018-06-05T15:38:17.003Z,34.90
2018-06-05T15:40:45.676Z,34.80
2018-06-05T15:43:15.293Z,33.60
2018-06-05T15:45:44.581Z,36.00
2018-06-05T15:48:13.710Z,33.40
2018-06-05T15:50:42.553Z,33.40
2018-06-05T15:55:39.812Z,34.50
2018-06-05T16:00:36.993Z,34.90
2018-06-05T16:03:05.752Z,34.40
2018-06-05T16:05:35.394Z,34.70
2018-06-05T16:08:03.809Z,36.60
2018-06-05T16:10:32.229Z,35.50
2018-06-05T16:13:00.746Z,34.50
2018-06-05T16:15:29.140Z,35.10
2018-06-05T16:17:57.538Z,36.20
2018-06-05T16:20:27.423Z,34.30
2018-06-05T16:22:56.060Z,34.40
2018-06-05T16:25:24.966Z,33.90
2018-06-05T16:27:53.403Z,34.50
2018-06-05T16:30:22.269Z,34.50
2018-06-05T16:32:50.706Z,34.40
2018-06-05T16:35:19.189Z,35.10
2018-06-05T16:37:47.610Z,36.10
2018-06-05T16:40:16.151Z,36.20
2018-06-05T16:42:44.572Z,37.80
2018-06-05T16:45:13.005Z,36.30
2018-06-05T16:47:42.136Z,38.20
2018-06-05T16:50:11.129Z,37.80
2018-06-05T16:52:39.953Z,38.00
2018-06-05T16:55:08.345Z,39.70
2018-06-05T16:57:36.762Z,38.80
2018-06-05T17:00:05.321Z,41.80
2018-06-05T17:02:33.704Z,40.70
2018-06-05T17:05:02.391Z,39.90
2018-06-05T17:07:31.354Z,41.20
2018-06-05T17:10:00.193Z,39.70
2018-06-05T17:14:56.786Z,39.70
2018-06-05T17:17:29.962Z,39.60
2018-06-05T17:19:58.408Z,41.00
2018-06-05T17:22:26.886Z,40.40
2018-06-05T17:24:55.822Z,41.30
2018-06-05T17:27:24.262Z,41.00
2018-06-05T17:29:53.054Z,41.90
2018-06-05T17:34:50.012Z,41.00
2018-06-05T17:37:18.571Z,41.40
2018-06-05T17:39:47.775Z,41.60
2018-06-05T17:42:16.396Z,41.20
2018-06-05T17:44:44.858Z,42.30
2018-06-05T17:47:13.625Z,42.60
2018-06-05T17:49:42.082Z,43.40
2018-06-05T17:52:10.516Z,42.70
2018-06-05T17:54:39.218Z,43.40
2018-06-05T17:57:07.947Z,43.50
2018-06-05T17:59:37.012Z,42.80
2018-06-05T18:02:05.448Z,42.70
2018-06-05T18:04:34.117Z,43.60
2018-06-05T18:07:03.019Z,44.40
2018-06-05T18:09:31.536Z,43.90
2018-06-05T18:12:00.207Z,43.70
2018-06-05T18:14:28.757Z,44.40
2018-06-05T18:16:57.507Z,45.10
2018-06-05T18:19:26.221Z,44.90
2018-06-05T18:21:55.027Z,44.60
2018-06-05T18:24:23.429Z,44.50
2018-06-05T18:26:52.543Z,44.80
2018-06-05T18:29:21.149Z,45.20
2018-06-05T18:31:49.966Z,45.50
2018-06-05T18:34:18.424Z,45.90
2018-06-05T18:36:46.835Z,46.50
2018-06-05T18:39:15.598Z,46.40
2018-06-05T18:41:44.094Z,46.70
2018-06-05T18:44:12.538Z,46.90
2018-06-05T18:46:40.938Z,47.20
2018-06-05T18:49:09.600Z,47.20
2018-06-05T18:51:37.990Z,47.90
2018-06-05T18:54:06.622Z,48.20
2018-06-05T18:56:35.237Z,48.10
2018-06-05T18:59:03.696Z,48.10
2018-06-05T19:01:32.421Z,50.70
2018-06-05T19:04:04.057Z,51.80
2018-06-05T19:06:32.535Z,52.10
2018-06-05T19:09:01.026Z,52.30
2018-06-05T19:11:30.164Z,53.00
2018-06-05T19:13:58.561Z,52.70
2018-06-05T19:16:26.980Z,53.00
2018-06-05T19:18:55.352Z,52.30
2018-06-05T19:21:24.179Z,52.70
2018-06-05T19:23:53.100Z,54.10
2018-06-05T19:28:49.887Z,54.70
2018-06-05T19:31:18.445Z,54.70
2018-06-05T19:33:47.583Z,55.20
2018-06-05T19:36:16.705Z,54.50
2018-06-05T19:38:45.503Z,54.00
2018-06-05T19:41:13.963Z,53.80
2018-06-05T19:43:42.903Z,53.90
2018-06-05T19:46:11.460Z,54.30
2018-06-05T19:48:40.123Z,54.20
2018-06-05T19:51:09.407Z,54.60
2018-06-05T19:53:38.830Z,55.20
2018-06-05T19:56:07.645Z,55.60
2018-06-05T19:58:36.064Z,55.40
2018-06-05T20:01:04.930Z,55.50
2018-06-05T20:03:34.558Z,55.40
2018-06-05T20:06:03.088Z,57.50
2018-06-05T20:08:31.993Z,57.20
2018-06-05T20:11:00.501Z,56.10
2018-06-05T20:13:28.912Z,58.00
2018-06-05T20:15:57.813Z,59.60
2018-06-05T20:18:26.581Z,57.60
2018-06-05T20:20:55.202Z,57.60
2018-06-05T20:23:23.811Z,57.00
2018-06-05T20:25:52.281Z,57.20
2018-06-05T20:28:20.954Z,57.70
2018-06-05T20:30:50.099Z,58.20
2018-06-05T20:33:18.543Z,58.40
2018-06-05T20:35:47.565Z,58.40
2018-06-05T20:38:16.013Z,60.00
2018-06-05T20:40:44.564Z,59.50
2018-06-05T20:43:13.191Z,61.20
2018-06-05T20:45:42.086Z,62.90
2018-06-05T20:48:10.799Z,62.90
2018-06-05T20:50:39.392Z,63.60
2018-06-05T20:53:08.007Z,63.60
2018-06-05T20:55:36.885Z,64.30
2018-06-05T20:58:05.308Z,66.40
2018-06-05T21:03:02.878Z,67.30
2018-06-05T21:05:31.586Z,68.80
2018-06-05T21:08:00.231Z,70.40
2018-06-05T21:10:28.673Z,70.50
2018-06-05T21:12:57.078Z,71.50
2018-06-05T21:15:27.165Z,72.30
2018-06-05T21:17:56.469Z,73.00
2018-06-05T21:20:24.928Z,73.50
2018-06-05T21:22:53.671Z,73.80
2018-06-05T21:25:22.060Z,74.50
2018-06-05T21:27:50.634Z,74.40
2018-06-05T21:30:19.412Z,74.50
2018-06-05T21:32:47.961Z,74.40
2018-06-05T21:35:16.444Z,75.00
2018-06-05T21:37:44.832Z,75.50
2018-06-05T21:40:13.234Z,75.00
2018-06-05T21:42:41.864Z,76.00
2018-06-05T21:47:39.272Z,76.50
2018-06-05T21:50:07.756Z,76.60
2018-06-05T21:52:36.494Z,77.30
2018-06-05T21:55:04.896Z,79.10
